Time;durP1;ratioP1;P1;durP2;ratioP2;P2;SDS_P1;SDS_P2;PMS_P1;PMS_P2;Temp;Humidity;BMP_temperature;BMP_pressure;BME280_temperature;BME280_humidity;BME280_pressure;Samples;Min_cycle;Max_cycle;Signal;HPM_P1;HPM_P2
2022/08/02 00:00:56;;;;;;;1.98;1.02;;;;;;;21.83;46.53;96141.03;5096208;28;20059;-71
2022/08/02 00:03:23;;;;;;;2.03;0.90;;;;;;;21.77;47.12;96139.78;5096152;28;20451;-67
2022/08/02 00:05:52;;;;;;;3.95;0.90;;;;;;;21.76;46.95;96142.56;5096033;28;20087;-69
2022/08/02 00:08:19;;;;;;;2.28;0.77;;;;;;;21.75;47.12;96143.50;5096016;28;20047;-68
2022/08/02 00:10:46;;;;;;;1.67;0.77;;;;;;;21.75;46.73;96151.47;5095763;28;20097;-68
2022/08/02 00:13:13;;;;;;;2.00;0.90;;;;;;;21.73;46.70;96145.47;5095938;28;20072;-69
2022/08/02 00:15:41;;;;;;;0.90;0.90;;;;;;;21.71;47.45;96153.59;5095778;28;20047;-70
2022/08/02 00:18:08;;;;;;;1.10;0.95;;;;;;;21.61;46.80;96150.06;5095663;28;20048;-67
2022/08/02 00:20:35;;;;;;;1.00;0.60;;;;;;;21.66;47.03;96159.31;5095720;28;20082;-69
2022/08/02 00:23:03;;;;;;;0.95;0.73;;;;;;;21.65;46.91;96156.81;5095683;28;20105;-67
2022/08/02 00:25:30;;;;;;;0.80;0.80;;;;;;;21.65;46.88;96152.34;5095541;28;20570;-68
2022/08/02 00:27:58;;;;;;;1.05;0.90;;;;;;;21.66;46.45;96161.13;5095438;28;20497;-70
2022/08/02 00:30:25;;;;;;;1.35;0.70;;;;;;;21.65;46.44;96155.00;5095288;28;20089;-68
2022/08/02 00:32:52;;;;;;;0.73;0.60;;;;;;;21.61;46.83;96158.06;5095497;28;20066;-67
2022/08/02 00:35:19;;;;;;;0.80;0.80;;;;;;;21.62;47.19;96162.41;5095450;28;20083;-68
2022/08/02 00:37:46;;;;;;;1.58;0.70;;;;;;;21.54;46.78;96160.41;5095336;28;20131;-69
2022/08/02 00:40:15;;;;;;;1.23;0.60;;;;;;;21.56;47.14;96154.00;5095358;28;20397;-68
2022/08/02 00:42:43;;;;;;;0.70;0.70;;;;;;;21.50;46.73;96154.53;5095494;28;20102;-67
2022/08/02 00:45:10;;;;;;;1.02;0.77;;;;;;;21.52;46.38;96147.25;5095152;28;20106;-67
2022/08/02 00:47:37;;;;;;;0.65;0.65;;;;;;;21.54;47.14;96147.09;5095132;28;20097;-69
2022/08/02 00:50:05;;;;;;;4.10;0.80;;;;;;;21.52;46.70;96146.41;5095189;28;20097;-70
2022/08/02 00:52:32;;;;;;;1.50;0.75;;;;;;;21.51;46.79;96145.56;5094768;28;20058;-69
2022/08/02 00:54:59;;;;;;;1.58;1.13;;;;;;;21.51;46.67;96145.56;5094970;28;20101;-67
2022/08/02 00:57:28;;;;;;;1.55;0.90;;;;;;;21.52;46.94;96141.09;5094659;28;20052;-70
2022/08/02 00:59:55;;;;;;;4.03;0.70;;;;;;;21.48;46.65;96139.66;5094485;28;20101;-68
2022/08/02 01:02:22;;;;;;;1.05;0.60;;;;;;;21.38;47.13;96145.81;5094838;28;20052;-70
2022/08/02 01:04:49;;;;;;;3.60;0.98;;;;;;;21.33;47.11;96140.06;5094774;28;20048;-67
2022/08/02 01:07:17;;;;;;;0.82;0.80;;;;;;;21.31;47.14;96134.88;5094876;28;20044;-69
2022/08/02 01:09:45;;;;;;;3.03;0.75;;;;;;;21.23;47.53;96140.03;5094716;28;20051;-68
2022/08/02 01:12:13;;;;;;;0.80;0.70;;;;;;;21.27;47.42;96145.91;5094690;28;20477;-68
2022/08/02 01:14:43;;;;;;;0.77;0.77;;;;;;;21.20;47.49;96140.31;5094665;28;20097;-71
2022/08/02 01:17:15;;;;;;;1.40;0.90;;;;;;;21.22;47.69;96143.66;5094618;28;20052;-70
2022/08/02 01:19:51;;;;;;;0.95;0.85;;;;;;;21.17;47.82;96138.78;5094630;28;20121;-68
2022/08/02 01:23:05;;;;;;;0.90;0.70;;;;;;;21.15;48.15;96139.84;5094478;28;20062;-67
2022/08/02 01:25:57;;;;;;;0.80;0.80;;;;;;;21.09;48.48;96143.91;5032148;28;20501;-70
2022/08/02 01:28:36;;;;;;;1.48;0.98;;;;;;;21.05;48.73;96145.16;5032171;28;20053;-69
2022/08/02 01:31:10;;;;;;;0.73;0.73;;;;;;;20.96;48.51;96141.47;5080923;28;20123;-67
2022/08/02 01:33:43;;;;;;;1.05;0.70;;;;;;;20.87;48.41;96144.91;5094423;28;20050;-69
2022/08/02 01:36:14;;;;;;;1.35;0.73;;;;;;;20.83;48.65;96150.47;5094126;28;20666;-70
2022/08/02 01:38:46;;;;;;;1.13;1.00;;;;;;;20.86;48.80;96143.22;5094464;28;20541;-70
2022/08/02 01:41:18;;;;;;;0.73;0.73;;;;;;;20.87;48.77;96143.09;5094259;28;20147;-70
2022/08/02 01:43:49;;;;;;;1.15;0.90;;;;;;;20.93;48.63;96147.06;5094100;28;20048;-70
2022/08/02 01:46:18;;;;;;;0.80;0.75;;;;;;;20.90;48.75;96148.16;5094051;28;20048;-70
2022/08/02 01:48:48;;;;;;;0.80;0.70;;;;;;;20.86;49.29;96140.56;5094027;28;20048;-69
2022/08/02 01:51:18;;;;;;;0.80;0.80;;;;;;;20.77;49.34;96137.69;5093750;28;20101;-68
2022/08/02 01:53:50;;;;;;;2.15;1.00;;;;;;;20.74;49.90;96148.59;5093982;28;20639;-69
2022/08/02 01:56:19;;;;;;;1.05;0.70;;;;;;;20.57;50.16;96142.94;5093815;28;20049;-70
2022/08/02 01:58:49;;;;;;;1.45;0.85;;;;;;;20.40;51.17;96141.69;5093914;28;20106;-67
2022/08/02 02:01:19;;;;;;;1.42;0.75;;;;;;;20.29;51.56;96139.94;5093859;28;20054;-68
2022/08/02 02:03:48;;;;;;;0.80;0.80;;;;;;;20.18;51.69;96143.53;5093724;28;20448;-69
2022/08/02 02:06:17;;;;;;;1.40;1.00;;;;;;;20.04;52.48;96133.19;5093733;28;20048;-69
2022/08/02 02:08:45;;;;;;;1.58;1.10;;;;;;;19.87;52.81;96138.03;5093649;28;20559;-69
2022/08/02 02:11:12;;;;;;;0.98;0.98;;;;;;;19.76;52.57;96138.94;5092622;28;20052;-68
2022/08/02 02:13:41;;;;;;;1.83;1.20;;;;;;;19.64;52.59;96142.59;5093589;28;20048;-68
2022/08/02 02:16:11;;;;;;;4.78;0.98;;;;;;;19.57;53.39;96143.09;5093518;28;20089;-71
2022/08/02 02:18:42;;;;;;;1.08;0.80;;;;;;;19.48;53.74;96135.03;5093451;28;20048;-67
2022/08/02 02:21:09;;;;;;;1.10;0.93;;;;;;;19.35;54.10;96133.38;5093507;28;20051;-68
2022/08/02 02:23:37;;;;;;;1.15;0.80;;;;;;;19.30;54.15;96141.69;5093380;28;20127;-67
2022/08/02 02:26:05;;;;;;;0.90;0.90;;;;;;;19.23;54.40;96139.66;5093423;28;20051;-67
2022/08/02 02:28:35;;;;;;;1.30;0.80;;;;;;;19.15;54.68;96141.09;5093445;28;20127;-70
2022/08/02 02:31:07;;;;;;;0.70;0.70;;;;;;;19.03;54.73;96144.72;5093374;28;20044;-70
2022/08/02 02:33:40;;;;;;;1.17;0.90;;;;;;;18.96;55.30;96149.63;5093215;28;20080;-68
2022/08/02 02:36:09;;;;;;;1.13;1.02;;;;;;;18.82;55.21;96145.44;5093292;28;20048;-68
2022/08/02 02:38:38;;;;;;;1.02;0.93;;;;;;;18.76;55.71;96149.41;5093317;28;20097;-69
2022/08/02 02:41:06;;;;;;;1.00;0.90;;;;;;;18.74;56.08;96148.66;5093177;28;20048;-68
2022/08/02 02:43:36;;;;;;;0.77;0.77;;;;;;;18.70;56.28;96136.63;5093288;28;20391;-68
2022/08/02 02:46:06;;;;;;;1.40;1.05;;;;;;;18.63;56.47;96135.41;5093019;28;20513;-69
2022/08/02 02:48:36;;;;;;;1.13;1.00;;;;;;;18.56;56.52;96137.69;5093178;28;20062;-70
2022/08/02 02:51:05;;;;;;;2.17;0.70;;;;;;;18.47;57.06;96138.38;5092816;28;20459;-68
2022/08/02 02:53:33;;;;;;;1.02;0.90;;;;;;;18.34;57.01;96138.50;5093078;28;20048;-70
2022/08/02 02:56:01;;;;;;;1.00;0.90;;;;;;;18.25;57.87;96135.59;5092978;28;20406;-69
2022/08/02 02:58:28;;;;;;;2.40;1.02;;;;;;;18.15;57.84;96138.06;5093112;28;20070;-67
2022/08/02 03:03:44;;;;;;;3.10;0.90;;;;;;;18.02;58.28;96146.06;5093127;28;20109;-66
2022/08/02 03:06:11;;;;;;;1.45;1.00;;;;;;;17.96;58.66;96146.50;5092896;28;20410;-70
2022/08/02 03:08:38;;;;;;;1.58;1.05;;;;;;;17.93;58.70;96147.59;5092991;28;20559;-70
2022/08/02 03:11:07;;;;;;;1.17;0.82;;;;;;;17.83;59.14;96148.38;5092995;28;20078;-70
2022/08/02 03:13:34;;;;;;;2.53;1.10;;;;;;;17.72;59.67;96152.66;5093276;28;20048;-68
2022/08/02 03:16:02;;;;;;;6.70;1.02;;;;;;;17.61;59.52;96142.84;5092952;28;20135;-69
2022/08/02 03:18:31;;;;;;;0.90;0.90;;;;;;;17.52;59.62;96152.31;5092966;28;20189;-71
2022/08/02 03:21:01;;;;;;;0.80;0.80;;;;;;;17.49;60.25;96154.34;5093234;28;20048;-69
2022/08/02 03:23:29;;;;;;;2.92;1.08;;;;;;;17.43;60.41;96159.09;5096939;28;20040;-68
2022/08/02 03:25:56;;;;;;;1.15;0.88;;;;;;;17.41;60.51;96166.31;5096820;28;20040;-69
2022/08/02 03:28:23;;;;;;;2.95;0.98;;;;;;;17.37;60.65;96164.00;5096725;28;20040;-69
2022/08/02 03:30:51;;;;;;;5.95;0.90;;;;;;;17.31;60.73;96167.94;5096648;28;20551;-66
2022/08/02 03:33:19;;;;;;;2.38;1.00;;;;;;;17.21;60.70;96172.16;5096679;28;20046;-69
2022/08/02 03:35:49;;;;;;;0.88;0.85;;;;;;;17.16;61.37;96172.50;5096599;28;20060;-67
2022/08/02 03:38:20;;;;;;;1.08;0.90;;;;;;;17.13;61.38;96180.66;5096485;28;20097;-67
2022/08/02 03:40:48;;;;;;;1.25;0.77;;;;;;;17.12;61.30;96184.22;5096535;28;20510;-70
2022/08/02 03:43:16;;;;;;;0.95;0.80;;;;;;;17.15;61.07;96190.16;5096576;28;20048;-68
2022/08/02 03:45:47;;;;;;;1.75;0.80;;;;;;;17.13;61.32;96194.69;5096289;28;20490;-68
2022/08/02 03:48:15;;;;;;;1.58;1.13;;;;;;;17.16;61.50;96193.66;5096434;28;20044;-69
2022/08/02 03:50:43;;;;;;;1.08;0.90;;;;;;;17.08;61.99;96196.81;5096306;28;20401;-69
2022/08/02 03:53:10;;;;;;;2.03;0.90;;;;;;;17.08;61.71;96201.25;5096087;28;20052;-66
2022/08/02 03:55:40;;;;;;;4.65;0.80;;;;;;;17.14;61.50;96203.47;5096199;28;20489;-68
2022/08/02 03:58:07;;;;;;;2.90;0.88;;;;;;;17.39;61.66;96205.22;5096065;28;20459;-68
2022/08/02 04:00:35;;;;;;;1.55;1.00;;;;;;;17.63;61.20;96195.63;5095992;28;20051;-68
2022/08/02 04:03:02;;;;;;;1.92;1.10;;;;;;;18.03;60.44;96202.47;5095991;28;20050;-69
2022/08/02 04:05:29;;;;;;;1.00;0.60;;;;;;;18.56;58.99;96206.53;5095993;28;20511;-67
2022/08/02 04:07:57;;;;;;;0.80;0.70;;;;;;;19.12;57.55;96202.34;5096045;28;20093;-70
2022/08/02 04:10:24;;;;;;;2.10;0.90;;;;;;;19.77;55.54;96206.94;5095942;28;20553;-70
2022/08/02 04:12:53;;;;;;;5.63;0.85;;;;;;;20.43;53.97;96201.69;5095817;28;20044;-69
2022/08/02 04:15:23;;;;;;;1.52;0.75;;;;;;;21.06;52.17;96205.31;5095835;28;20519;-69
2022/08/02 04:17:56;;;;;;;1.85;0.70;;;;;;;21.62;50.84;96213.81;5095763;28;20048;-68
2022/08/02 04:20:30;;;;;;;4.03;1.30;;;;;;;22.11;49.87;96212.22;5095985;28;20500;-67
2022/08/02 04:23:01;;;;;;;1.13;0.65;;;;;;;22.60;47.80;96212.25;5095748;28;20082;-67
2022/08/02 04:25:28;;;;;;;5.15;1.10;;;;;;;23.04;47.25;96216.25;5095648;28;20501;-70
2022/08/02 04:27:57;;;;;;;1.80;0.93;;;;;;;23.46;46.37;96213.19;5095549;28;20043;-68
2022/08/02 04:30:26;;;;;;;1.95;1.05;;;;;;;23.79;45.32;96209.22;5095503;28;20044;-70
2022/08/02 04:32:53;;;;;;;2.50;0.85;;;;;;;24.18;44.51;96213.47;5094426;28;20109;-67
2022/08/02 04:35:20;;;;;;;1.77;0.70;;;;;;;24.56;43.53;96208.81;5095541;28;20416;-69
2022/08/02 04:37:49;;;;;;;2.95;0.80;;;;;;;24.91;43.38;96208.94;5095300;28;20051;-68
2022/08/02 04:40:16;;;;;;;0.82;0.73;;;;;;;25.24;42.12;96213.63;5095435;28;20139;-69
2022/08/02 04:42:43;;;;;;;0.70;0.57;;;;;;;25.52;41.88;96209.94;5095191;28;20040;-70
2022/08/02 04:45:13;;;;;;;1.10;0.60;;;;;;;25.84;41.99;96209.25;5095356;28;20492;-68
2022/08/02 04:47:40;;;;;;;2.25;0.60;;;;;;;26.24;41.68;96206.81;5095231;28;20477;-70
2022/08/02 04:50:08;;;;;;;1.10;0.60;;;;;;;26.67;40.84;96205.00;5095269;28;20528;-68
2022/08/02 04:52:35;;;;;;;3.67;1.10;;;;;;;27.03;40.64;96204.63;5094953;28;20091;-68
2022/08/02 04:55:02;;;;;;;0.57;0.50;;;;;;;27.31;39.54;96211.47;5095092;28;20075;-68
2022/08/02 05:00:21;;;;;;;0.88;0.70;;;;;;;27.71;38.17;96219.56;5079249;28;20055;-70
2022/08/02 05:02:49;;;;;;;1.08;0.70;;;;;;;28.02;38.64;96220.59;5094869;28;20040;-70
2022/08/02 05:05:16;;;;;;;4.13;0.93;;;;;;;28.26;39.09;96219.59;5094856;28;20052;-68
2022/08/02 05:07:45;;;;;;;6.60;0.98;;;;;;;28.51;38.45;96224.84;5094822;28;20584;-70
2022/08/02 05:10:12;;;;;;;1.67;0.50;;;;;;;28.74;37.19;96219.44;5094749;28;20123;-70
2022/08/02 05:12:39;;;;;;;0.50;0.50;;;;;;;28.91;37.08;96230.06;5094641;28;20105;-69
2022/08/02 05:15:08;;;;;;;1.23;0.80;;;;;;;29.16;36.34;96227.16;5094583;28;20048;-68
2022/08/02 05:17:36;;;;;;;0.65;0.65;;;;;;;29.49;36.82;96224.09;5094559;28;20500;-69
2022/08/02 05:20:05;;;;;;;2.05;0.70;;;;;;;29.71;37.09;96223.38;5094654;28;20044;-68
2022/08/02 05:22:32;;;;;;;0.73;0.60;;;;;;;30.00;36.56;96227.88;5094535;28;20040;-69
2022/08/02 05:24:59;;;;;;;3.40;0.80;;;;;;;30.30;35.71;96231.53;5094335;28;20048;-68
2022/08/02 05:27:26;;;;;;;1.15;0.60;;;;;;;30.50;34.88;96229.91;5094406;28;20395;-68
2022/08/02 05:29:54;;;;;;;0.88;0.75;;;;;;;30.81;33.01;96237.84;5094323;28;20044;-67
2022/08/02 05:32:21;;;;;;;0.60;0.60;;;;;;;30.91;30.60;96235.66;5094291;28;20498;-69
2022/08/02 05:34:53;;;;;;;2.38;0.60;;;;;;;31.10;31.05;96236.84;5094273;28;20052;-67
2022/08/02 05:37:22;;;;;;;1.95;0.75;;;;;;;31.26;31.79;96233.00;5094173;28;20327;-70
2022/08/02 05:39:49;;;;;;;0.65;0.65;;;;;;;31.62;31.10;96233.03;5094197;28;20079;-69
2022/08/02 05:42:16;;;;;;;1.15;0.73;;;;;;;31.96;30.80;96234.03;5094121;28;20040;-69
2022/08/02 05:44:43;;;;;;;1.15;0.70;;;;;;;32.12;30.27;96240.13;5093949;28;20044;-69
2022/08/02 05:47:11;;;;;;;3.35;0.60;;;;;;;32.30;29.73;96241.44;5094044;28;20452;-68
2022/08/02 05:49:38;;;;;;;1.60;0.60;;;;;;;32.54;30.43;96240.06;5094035;28;20048;-69
2022/08/02 05:52:15;;;;;;;2.33;0.60;;;;;;;32.76;28.54;96238.00;5093642;28;20071;-68
2022/08/02 05:54:49;;;;;;;1.10;0.68;;;;;;;32.94;28.70;96244.66;5093915;28;20052;-69
2022/08/02 05:57:26;;;;;;;0.68;0.60;;;;;;;33.07;29.39;96243.03;5093763;28;20044;-68
2022/08/02 06:00:06;;;;;;;0.85;0.70;;;;;;;33.18;29.09;96252.38;5093832;28;20067;-68
2022/08/02 06:02:45;;;;;;;1.00;0.70;;;;;;;33.24;27.95;96251.53;5093626;28;20485;-70
2022/08/02 06:05:15;;;;;;;2.70;0.90;;;;;;;33.39;27.36;96251.31;5093744;28;20040;-68
2022/08/02 06:07:45;;;;;;;1.73;0.90;;;;;;;33.62;26.30;96250.06;5093850;28;20127;-68
2022/08/02 06:10:14;;;;;;;0.70;0.70;;;;;;;33.78;25.89;96255.00;5093676;28;20105;-69
2022/08/02 06:12:48;;;;;;;2.97;0.77;;;;;;;33.68;27.29;96254.63;5093526;28;20090;-69
2022/08/02 06:15:20;;;;;;;0.93;0.80;;;;;;;33.94;26.51;96254.72;5093680;28;20059;-69
2022/08/02 06:17:48;;;;;;;0.70;0.70;;;;;;;33.53;25.99;96261.06;5093557;28;20040;-69
2022/08/02 06:20:15;;;;;;;0.80;0.68;;;;;;;33.37;26.82;96259.66;5093553;28;20044;-68
2022/08/02 06:22:46;;;;;;;1.50;0.90;;;;;;;33.38;26.56;96249.66;5093500;28;20043;-69
2022/08/02 06:25:14;;;;;;;0.98;0.80;;;;;;;33.35;25.96;96260.91;5093427;28;20052;-69
2022/08/02 06:27:42;;;;;;;1.83;0.80;;;;;;;33.07;27.66;96265.50;5093325;28;20055;-69
2022/08/02 06:30:11;;;;;;;0.90;0.80;;;;;;;33.42;26.61;96267.16;5093397;28;20131;-68
2022/08/02 06:32:38;;;;;;;0.80;0.70;;;;;;;33.55;25.29;96269.00;5093372;28;20083;-69
2022/08/02 06:35:07;;;;;;;1.95;0.80;;;;;;;33.02;25.93;96265.28;5093355;28;20044;-68
2022/08/02 06:37:38;;;;;;;2.70;0.77;;;;;;;32.84;26.70;96271.31;5093066;28;20417;-68
2022/08/02 06:40:14;;;;;;;2.25;0.80;;;;;;;33.11;26.82;96271.34;5093144;28;20044;-68
2022/08/02 06:42:50;;;;;;;2.85;0.63;;;;;;;33.35;26.49;96271.75;5093247;28;20402;-69
2022/08/02 06:45:18;;;;;;;1.13;0.60;;;;;;;33.45;26.14;96264.03;5093234;28;20048;-68
2022/08/02 06:47:45;;;;;;;0.75;0.60;;;;;;;33.08;26.11;96266.34;5093245;28;20482;-68
2022/08/02 06:50:15;;;;;;;1.27;0.65;;;;;;;33.07;26.81;96260.09;5093001;28;20044;-69
2022/08/02 06:52:43;;;;;;;0.60;0.60;;;;;;;33.38;26.66;96264.03;5092742;28;20055;-69
2022/08/02 06:55:12;;;;;;;0.77;0.63;;;;;;;33.64;25.93;96258.78;5092958;28;20055;-69
2022/08/02 06:57:40;;;;;;;0.90;0.70;;;;;;;33.88;25.94;96259.97;5096263;28;20055;-68
2022/08/02 07:00:09;;;;;;;0.88;0.70;;;;;;;33.75;25.65;96263.56;5097128;28;20055;-67
2022/08/02 07:02:38;;;;;;;1.25;0.90;;;;;;;33.76;25.68;96270.66;5097122;28;20490;-68
2022/08/02 07:05:08;;;;;;;2.13;0.80;;;;;;;34.11;25.88;96258.63;5097164;28;20048;-69
2022/08/02 07:07:35;;;;;;;2.97;0.70;;;;;;;34.10;25.43;96259.66;5096963;28;20459;-68
2022/08/02 07:10:03;;;;;;;2.15;0.70;;;;;;;34.40;25.38;96264.56;5097019;28;20044;-67
2022/08/02 07:12:33;;;;;;;0.60;0.60;;;;;;;34.35;24.72;96263.53;5096855;28;20040;-66
2022/08/02 07:15:01;;;;;;;2.00;0.60;;;;;;;34.77;24.77;96257.66;5096881;28;20051;-67
2022/08/02 07:17:29;;;;;;;0.65;0.60;;;;;;;35.08;23.52;96260.56;5096810;28;20056;-69
2022/08/02 07:19:57;;;;;;;1.30;0.60;;;;;;;34.54;24.36;96267.19;5096719;28;20048;-69
2022/08/02 07:22:25;;;;;;;3.72;0.70;;;;;;;33.97;25.23;96263.28;5096929;28;20060;-67
2022/08/02 07:24:53;;;;;;;5.68;0.60;;;;;;;33.41;25.79;96266.31;5096865;28;20044;-67
2022/08/02 07:27:21;;;;;;;0.93;0.50;;;;;;;32.49;28.75;96264.19;5096686;28;20551;-67
2022/08/02 07:29:50;;;;;;;1.55;0.70;;;;;;;32.73;26.89;96260.06;5096693;28;20060;-67
2022/08/02 07:32:18;;;;;;;0.65;0.52;;;;;;;32.77;27.42;96255.06;5096687;28;20052;-66
2022/08/02 07:34:46;;;;;;;2.80;0.80;;;;;;;33.05;26.04;96254.06;5096669;28;20483;-68
2022/08/02 07:37:14;;;;;;;0.68;0.45;;;;;;;32.70;26.81;96241.53;5096523;28;20048;-68
2022/08/02 07:39:42;;;;;;;0.63;0.50;;;;;;;32.30;26.86;96254.97;5096458;28;20490;-69
2022/08/02 07:42:09;;;;;;;3.72;0.65;;;;;;;32.60;27.75;96251.94;5096388;28;20437;-68
2022/08/02 07:44:36;;;;;;;3.38;0.63;;;;;;;32.60;26.74;96251.94;5096441;28;20069;-67
2022/08/02 07:47:06;;;;;;;1.10;0.70;;;;;;;32.29;27.54;96256.81;5096330;28;20093;-68
2022/08/02 07:49:33;;;;;;;2.58;0.80;;;;;;;32.47;27.49;96260.84;5096269;28;20089;-67
2022/08/02 07:52:00;;;;;;;0.55;0.55;;;;;;;32.18;27.82;96262.81;5096037;28;20387;-67
2022/08/02 07:54:29;;;;;;;1.33;0.73;;;;;;;31.84;27.90;96258.09;5096227;28;20101;-67
2022/08/02 07:56:56;;;;;;;0.77;0.70;;;;;;;31.43;28.27;96259.75;5096162;28;20044;-67
2022/08/02 07:59:23;;;;;;;2.38;0.60;;;;;;;30.60;29.73;96261.94;5096187;28;20055;-67
2022/08/02 08:01:51;;;;;;;2.85;0.80;;;;;;;30.30;30.19;96266.59;5096215;28;20112;-65
2022/08/02 08:04:20;;;;;;;3.08;0.73;;;;;;;29.51;30.84;96264.31;5096005;28;20501;-66
2022/08/02 08:06:50;;;;;;;5.70;0.60;;;;;;;29.17;32.47;96260.28;5095916;28;20047;-66
2022/08/02 08:09:18;;;;;;;0.60;0.57;;;;;;;29.21;31.37;96265.13;5096006;28;20044;-65
2022/08/02 08:11:45;;;;;;;2.60;0.82;;;;;;;29.29;32.90;96256.16;5095972;28;20067;-66
2022/08/02 08:14:12;;;;;;;1.77;0.68;;;;;;;29.98;31.23;96266.84;5095839;28;20050;-67
2022/08/02 08:16:40;;;;;;;1.60;0.50;;;;;;;30.60;29.82;96267.31;5096098;28;20052;-66
2022/08/02 08:19:07;;;;;;;2.60;0.63;;;;;;;30.81;29.92;96273.78;5095630;28;20056;-66
2022/08/02 08:21:36;;;;;;;5.22;0.80;;;;;;;30.67;29.81;96272.78;5077804;28;20059;-66
2022/08/02 08:24:04;;;;;;;2.03;0.80;;;;;;;30.43;29.93;96279.41;5095818;28;20067;-67
2022/08/02 08:26:31;;;;;;;0.60;0.60;;;;;;;30.10;29.98;96272.56;5095689;28;20528;-66
2022/08/02 08:29:00;;;;;;;3.20;1.10;;;;;;;29.98;30.33;96264.13;5095697;28;20451;-65
2022/08/02 08:31:27;;;;;;;1.00;0.65;;;;;;;29.96;31.84;96268.88;5095595;28;20127;-67
2022/08/02 08:33:55;;;;;;;2.28;0.90;;;;;;;29.64;31.41;96269.06;5095496;28;20044;-66
2022/08/02 08:36:23;;;;;;;1.05;0.55;;;;;;;29.31;31.68;96266.72;5095318;28;20056;-65
2022/08/02 08:38:52;;;;;;;0.95;0.73;;;;;;;29.03;32.33;96268.16;5095190;28;20137;-65
2022/08/02 08:41:20;;;;;;;1.25;0.70;;;;;;;28.71;32.44;96272.78;5095402;28;20106;-68
2022/08/02 08:43:48;;;;;;;1.33;0.90;;;;;;;28.99;32.76;96269.56;5095388;28;20051;-67
2022/08/02 08:46:26;;;;;;;0.80;0.70;;;;;;;29.47;32.71;96258.47;5095309;28;20402;-68
2022/08/02 08:48:58;;;;;;;1.77;0.73;;;;;;;30.11;31.05;96258.91;5095168;28;20123;-65
2022/08/02 08:51:30;;;;;;;0.80;0.80;;;;;;;30.85;30.92;96258.84;5094875;28;20048;-66
2022/08/02 08:54:03;;;;;;;0.68;0.60;;;;;;;31.60;28.31;96262.13;5095187;28;20109;-67
2022/08/02 08:56:34;;;;;;;1.83;0.88;;;;;;;31.30;28.51;96260.44;5094508;28;20044;-68
2022/08/02 08:59:02;;;;;;;2.67;0.70;;;;;;;31.33;29.26;96276.25;5095017;28;20112;-68
2022/08/02 09:01:30;;;;;;;0.80;0.77;;;;;;;31.60;28.06;96262.13;5095095;28;20055;-68
2022/08/02 09:03:57;;;;;;;0.73;0.70;;;;;;;31.65;27.70;96270.47;5095042;28;20048;-67
2022/08/02 09:06:25;;;;;;;2.03;1.10;;;;;;;31.13;28.66;96252.66;5094779;28;20051;-68
2022/08/02 09:08:53;;;;;;;1.17;0.88;;;;;;;30.64;29.32;96259.69;5094601;28;20051;-68
2022/08/02 09:11:24;;;;;;;1.33;0.80;;;;;;;30.61;29.64;96252.81;5094609;28;20048;-67
2022/08/02 09:13:56;;;;;;;2.67;0.73;;;;;;;30.69;28.70;96257.25;5094537;28;20493;-67
2022/08/02 09:16:32;;;;;;;0.77;0.70;;;;;;;30.96;28.30;96249.41;5094504;28;20558;-67
2022/08/02 09:19:00;;;;;;;4.47;0.80;;;;;;;31.51;28.77;96245.22;5094133;28;20513;-66
2022/08/02 09:21:36;;;;;;;1.38;0.73;;;;;;;31.78;28.66;96231.84;5094500;28;20050;-66
2022/08/02 09:24:15;;;;;;;0.75;0.75;;;;;;;32.07;27.97;96254.25;5094370;28;20048;-66
2022/08/02 09:26:46;;;;;;;0.63;0.60;;;;;;;31.48;28.18;96246.47;5094395;28;20048;-66
2022/08/02 09:29:14;;;;;;;;;;;;;;;30.76;28.91;96247.38;5094776;28;20493;-67
2022/08/02 09:31:42;;;;;;;0.85;0.80;;;;;;;30.35;30.42;96245.28;5094351;28;19920;-66
2022/08/02 09:34:11;;;;;;;0.80;0.75;;;;;;;30.11;29.18;96247.28;5094205;28;20070;-67
2022/08/02 09:36:41;;;;;;;0.63;0.60;;;;;;;30.23;30.95;96234.16;5093941;28;20131;-67
2022/08/02 09:39:11;;;;;;;1.38;0.82;;;;;;;30.47;29.65;96232.13;5094028;28;20048;-66
2022/08/02 09:41:45;;;;;;;2.45;1.05;;;;;;;30.61;29.30;96235.81;5093956;28;20051;-66
2022/08/02 09:44:15;;;;;;;1.15;0.70;;;;;;;30.61;30.28;96238.50;5094055;28;20055;-66
2022/08/02 09:46:44;;;;;;;0.60;0.60;;;;;;;30.24;29.93;96242.06;5093996;28;20056;-67
2022/08/02 09:49:13;;;;;;;0.77;0.68;;;;;;;29.97;30.13;96238.19;5093954;28;20059;-67
2022/08/02 09:51:48;;;;;;;2.53;0.80;;;;;;;29.94;30.36;96238.56;5093673;28;20071;-66
2022/08/02 09:54:18;;;;;;;2.85;0.80;;;;;;;29.75;30.51;96235.44;5093835;28;20044;-67
2022/08/02 09:56:48;;;;;;;4.47;0.70;;;;;;;29.63;30.97;96232.41;5093817;28;20097;-66
2022/08/02 09:59:16;;;;;;;2.00;0.70;;;;;;;29.66;31.35;96231.19;5093841;28;20301;-66
2022/08/02 10:01:48;;;;;;;1.70;1.60;;;;;;;29.70;31.89;96232.47;5093682;28;20094;-66
2022/08/02 10:04:16;;;;;;;2.10;0.85;;;;;;;29.65;31.81;96227.66;5093796;28;20129;-68
2022/08/02 10:06:44;;;;;;;0.73;0.70;;;;;;;29.62;31.72;96236.13;5093617;28;20066;-66
2022/08/02 10:09:12;;;;;;;2.25;0.90;;;;;;;29.75;31.31;96225.50;5093604;28;20044;-66
2022/08/02 10:11:41;;;;;;;2.33;0.90;;;;;;;30.28;30.67;96218.25;5093664;28;20051;-67
2022/08/02 10:14:11;;;;;;;1.15;0.90;;;;;;;30.21;30.56;96231.66;5093691;28;20135;-68
2022/08/02 10:16:40;;;;;;;4.75;0.82;;;;;;;29.74;31.32;96233.78;5093635;28;20124;-65
2022/08/02 10:19:09;;;;;;;1.33;0.90;;;;;;;29.31;32.25;96226.34;5093486;28;20047;-66
2022/08/02 10:21:44;;;;;;;2.30;0.93;;;;;;;29.09;32.83;96226.22;5093593;28;20048;-65
2022/08/02 10:24:13;;;;;;;0.70;0.70;;;;;;;29.06;31.71;96227.44;5093389;28;20071;-66
2022/08/02 10:26:45;;;;;;;0.98;0.65;;;;;;;29.01;32.90;96225.28;5093457;28;20126;-66
2022/08/02 10:29:17;;;;;;;0.70;0.70;;;;;;;29.04;32.68;96224.06;5093378;28;20093;-66
2022/08/02 10:31:51;;;;;;;1.45;0.98;;;;;;;28.82;32.64;96229.28;5092673;28;20127;-67
2022/08/02 10:34:23;;;;;;;1.77;0.98;;;;;;;28.88;33.18;96222.34;5093218;28;20048;-66
2022/08/02 10:36:52;;;;;;;0.90;0.85;;;;;;;29.04;32.95;96229.44;5093374;28;20165;-66
2022/08/02 10:39:20;;;;;;;3.25;0.93;;;;;;;29.18;32.75;96224.28;5093229;28;20067;-66
2022/08/02 10:41:48;;;;;;;0.90;0.90;;;;;;;29.21;32.36;96222.06;5093136;28;20417;-66
2022/08/02 10:44:39;;;;;;;1.10;1.00;;;;;;;29.28;31.73;96235.59;5093105;28;20044;-66
2022/08/02 10:47:25;;;;;;;1.60;0.90;;;;;;;29.25;31.31;96227.91;5088924;28;20048;-68
2022/08/02 10:49:55;;;;;;;1.23;1.13;;;;;;;29.32;31.93;96226.16;5092993;28;20131;-68
2022/08/02 10:52:23;;;;;;;1.42;0.90;;;;;;;29.50;32.07;96233.03;5092749;28;20501;-67
2022/08/02 10:54:55;;;;;;;2.38;0.75;;;;;;;29.73;32.03;96232.09;5092968;28;20467;-69
2022/08/02 10:57:24;;;;;;;1.70;1.27;;;;;;;29.88;31.51;96234.78;5093071;28;20040;-68
2022/08/02 10:59:56;;;;;;;1.23;0.80;;;;;;;30.04;30.38;96228.34;5092915;28;20135;-67
2022/08/02 11:02:41;;;;;;;4.88;0.90;;;;;;;30.26;30.87;96225.69;5092949;28;20121;-67
2022/08/02 11:05:15;;;;;;;0.90;0.80;;;;;;;30.25;29.93;96226.72;5093018;28;20048;-69
2022/08/02 11:07:44;;;;;;;0.82;0.80;;;;;;;30.26;31.29;96225.69;5093027;28;20052;-68
2022/08/02 11:10:35;;;;;;;0.90;0.83;;;;;;;30.41;29.75;96222.09;5093067;28;20044;-68
2022/08/02 11:13:07;;;;;;;4.68;1.00;;;;;;;30.51;30.32;96223.47;5092906;28;20487;-66
2022/08/02 11:15:57;;;;;;;5.22;0.85;;;;;;;30.63;30.37;96221.06;5092896;28;20113;-69
2022/08/02 11:19:04;;;;;;;1.77;0.75;;;;;;;30.64;29.39;96219.22;5092779;28;20542;-67
2022/08/02 11:21:32;;;;;;;1.10;0.80;;;;;;;31.04;30.15;96216.03;5092852;28;20082;-67
2022/08/02 11:24:25;;;;;;;2.20;0.90;;;;;;;31.24;28.58;96208.06;5092687;28;20044;-69
2022/08/02 11:26:54;;;;;;;1.30;0.80;;;;;;;31.05;28.93;96201.50;5092688;28;20135;-66
2022/08/02 11:29:21;;;;;;;2.80;0.60;;;;;;;31.32;27.69;96204.38;5092693;28;20083;-67
2022/08/02 11:31:50;;;;;;;0.95;0.80;;;;;;;31.16;28.97;96208.22;5092660;28;20070;-69
2022/08/02 11:34:18;;;;;;;1.20;0.90;;;;;;;30.48;29.47;96215.75;5092640;28;20051;-66
2022/08/02 11:36:50;;;;;;;1.48;0.90;;;;;;;29.85;30.46;96214.44;5092572;28;20048;-66
2022/08/02 11:39:20;;;;;;;0.98;0.85;;;;;;;29.29;31.65;96213.06;5092660;28;20048;-65
2022/08/02 11:41:52;;;;;;;1.33;1.23;;;;;;;29.11;32.49;96213.41;5092705;28;20386;-66
2022/08/02 11:44:20;;;;;;;1.02;1.02;;;;;;;28.99;32.22;96221.94;5096388;28;20052;-66
2022/08/02 11:46:57;;;;;;;2.33;1.20;;;;;;;28.85;32.96;96211.94;5096477;28;20569;-66
2022/08/02 11:49:24;;;;;;;1.65;0.90;;;;;;;29.03;32.75;96210.78;5096586;28;20501;-66
2022/08/02 11:51:59;;;;;;;0.82;0.82;;;;;;;29.22;31.64;96215.66;5096078;28;20136;-67